createdAt,value
2022-09-15T00:01:02.781Z,85.33
2022-09-15T00:03:31.888Z,85.18
2022-09-15T00:05:59.649Z,85.63
2022-09-15T00:08:27.668Z,85.30
2022-09-15T00:10:57.344Z,85.45
2022-09-15T00:13:26.035Z,85.21
2022-09-15T00:15:54.472Z,84.94
2022-09-15T00:18:22.485Z,84.27
2022-09-15T00:20:51.743Z,84.62
2022-09-15T00:23:19.906Z,85.47
2022-09-15T00:25:50.470Z,85.69
2022-09-15T00:28:19.578Z,85.68
2022-09-15T00:30:49.216Z,85.56
2022-09-15T00:33:17.806Z,86.33
2022-09-15T00:35:47.717Z,86.15
2022-09-15T00:38:17.489Z,86.38
2022-09-15T00:40:47.108Z,86.73
2022-09-15T00:43:16.036Z,87.47
2022-09-15T00:45:44.588Z,87.71
2022-09-15T00:48:16.122Z,87.69
2022-09-15T00:50:48.585Z,87.41
2022-09-15T00:53:18.489Z,87.17
2022-09-15T00:55:49.318Z,87.63
2022-09-15T00:58:21.497Z,87.55
2022-09-15T01:00:55.353Z,86.71
2022-09-15T01:03:23.783Z,86.58
2022-09-15T01:05:54.555Z,86.76
2022-09-15T01:08:40.729Z,87.39
2022-09-15T01:11:08.914Z,86.57
2022-09-15T01:13:36.854Z,86.20
2022-09-15T01:16:11.358Z,85.66
2022-09-15T01:18:47.052Z,85.24
2022-09-15T01:21:25.678Z,84.97
2022-09-15T01:24:30.559Z,85.86
2022-09-15T01:27:18.743Z,85.60
2022-09-15T01:30:04.997Z,84.75
2022-09-15T01:32:57.804Z,84.22
2022-09-15T01:35:33.653Z,84.42
2022-09-15T01:38:05.233Z,84.65
2022-09-15T01:40:37.665Z,84.71
2022-09-15T01:43:06.534Z,85.17
2022-09-15T01:45:36.876Z,85.92
2022-09-15T01:48:06.393Z,85.67
2022-09-15T01:50:36.610Z,84.61
2022-09-15T01:53:09.259Z,84.15
2022-09-15T01:55:40.920Z,83.95
2022-09-15T01:58:09.287Z,83.61
2022-09-15T02:00:41.042Z,83.94
2022-09-15T02:03:17.394Z,83.56
2022-09-15T02:05:48.101Z,84.13
2022-09-15T02:08:25.447Z,84.12
2022-09-15T02:10:58.759Z,84.34
2022-09-15T02:13:32.329Z,84.41
2022-09-15T02:16:02.238Z,84.43
2022-09-15T02:18:32.760Z,85.45
2022-09-15T02:21:09.242Z,85.08
2022-09-15T02:23:39.629Z,85.07
2022-09-15T02:26:10.079Z,84.77
2022-09-15T02:28:39.855Z,84.86
2022-09-15T02:31:10.468Z,84.19
2022-09-15T02:33:41.232Z,84.58
2022-09-15T02:36:10.958Z,84.28
2022-09-15T02:38:43.347Z,84.10
2022-09-15T02:41:13.736Z,84.06
2022-09-15T02:43:46.342Z,84.10
2022-09-15T02:46:16.528Z,83.66
2022-09-15T02:48:44.267Z,84.57
2022-09-15T02:51:12.076Z,84.40
2022-09-15T02:53:39.921Z,84.73
2022-09-15T02:56:08.058Z,84.65
2022-09-15T02:58:35.893Z,85.35
2022-09-15T03:01:04.896Z,85.54
2022-09-15T03:03:34.223Z,85.89
2022-09-15T03:08:58.602Z,85.17
2022-09-15T03:11:27.943Z,85.16
2022-09-15T03:13:57.119Z,84.66
2022-09-15T03:16:25.481Z,85.97
2022-09-15T03:18:55.422Z,85.91
2022-09-15T03:21:23.760Z,86.63
2022-09-15T03:23:51.686Z,86.53
2022-09-15T03:26:20.997Z,86.50
2022-09-15T03:28:48.716Z,86.08
2022-09-15T03:31:16.464Z,85.32
2022-09-15T03:33:44.402Z,85.65
2022-09-15T03:36:12.440Z,84.72
2022-09-15T03:38:40.170Z,84.40
2022-09-15T03:41:10.759Z,85.43
2022-09-15T03:43:40.437Z,86.00
2022-09-15T03:46:10.030Z,86.45
2022-09-15T03:48:40.414Z,85.86
2022-09-15T03:51:10.022Z,85.73
2022-09-15T03:53:39.070Z,85.96
2022-09-15T03:56:12.097Z,86.64
2022-09-15T03:58:41.217Z,87.56
2022-09-15T04:01:09.267Z,86.92
2022-09-15T04:03:43.199Z,87.26
2022-09-15T04:06:13.414Z,87.72
2022-09-15T04:08:41.212Z,88.20
2022-09-15T04:11:11.230Z,88.04
2022-09-15T04:13:41.837Z,88.40
2022-09-15T04:16:11.876Z,88.78
2022-09-15T04:18:39.828Z,89.18
2022-09-15T04:21:08.825Z,88.68
2022-09-15T04:23:37.173Z,88.89
2022-09-15T04:26:06.594Z,89.33
2022-09-15T04:28:36.379Z,88.81
2022-09-15T04:31:06.912Z,88.81
2022-09-15T04:33:35.199Z,89.01
2022-09-15T04:36:04.021Z,89.39
2022-09-15T04:38:32.259Z,89.92
2022-09-15T04:41:01.806Z,90.10
2022-09-15T04:43:29.903Z,89.99
2022-09-15T04:45:57.649Z,89.61
2022-09-15T04:48:26.974Z,88.40
2022-09-15T04:50:54.996Z,87.86
2022-09-15T04:53:22.701Z,88.46
2022-09-15T04:55:50.433Z,87.87
2022-09-15T04:58:18.145Z,88.32
2022-09-15T05:00:45.993Z,88.50
2022-09-15T05:03:15.093Z,88.33
2022-09-15T05:05:44.204Z,87.85
2022-09-15T05:08:12.154Z,88.27
2022-09-15T05:10:39.860Z,87.58
2022-09-15T05:13:07.594Z,86.89
2022-09-15T05:15:35.322Z,87.53
2022-09-15T05:18:03.075Z,87.38
2022-09-15T05:20:30.822Z,87.52
2022-09-15T05:23:00.073Z,86.73
2022-09-15T05:25:28.278Z,85.42
2022-09-15T05:27:56.013Z,85.49
2022-09-15T05:30:37.749Z,86.45
2022-09-15T05:33:07.503Z,85.81
2022-09-15T05:35:35.231Z,84.83
2022-09-15T05:38:04.374Z,84.56
2022-09-15T05:40:33.783Z,84.28
2022-09-15T05:43:01.630Z,83.01
2022-09-15T05:45:29.340Z,83.31
2022-09-15T05:47:57.107Z,82.98
2022-09-15T05:50:24.813Z,83.26
2022-09-15T05:52:52.797Z,83.85
2022-09-15T05:55:21.950Z,83.31
2022-09-15T05:57:49.694Z,83.68
2022-09-15T06:00:18.952Z,83.23
2022-09-15T06:02:46.851Z,82.91
2022-09-15T06:05:14.635Z,82.90
2022-09-15T06:07:42.603Z,82.54
2022-09-15T06:10:11.344Z,82.41
2022-09-15T06:12:40.487Z,83.77
2022-09-15T06:15:08.998Z,83.05
2022-09-15T06:17:36.751Z,82.68
2022-09-15T06:20:06.602Z,81.46
2022-09-15T06:22:34.502Z,80.40
2022-09-15T06:25:02.332Z,79.96
2022-09-15T06:27:30.065Z,79.88
2022-09-15T06:29:59.374Z,81.20
2022-09-15T06:32:27.378Z,82.06
2022-09-15T06:34:55.168Z,81.87
2022-09-15T06:37:22.889Z,81.61
2022-09-15T06:39:51.072Z,82.54
2022-09-15T06:42:19.069Z,82.89
2022-09-15T06:44:48.468Z,82.38
2022-09-15T06:47:17.998Z,81.75
2022-09-15T06:49:45.803Z,81.89
2022-09-15T06:52:13.532Z,82.13
2022-09-15T06:54:41.270Z,81.36
2022-09-15T06:57:08.981Z,81.75
2022-09-15T06:59:36.705Z,80.65
2022-09-15T07:02:05.381Z,81.44
2022-09-15T07:04:36.838Z,82.10
2022-09-15T07:07:04.700Z,82.03
2022-09-15T07:09:32.487Z,81.29
2022-09-15T07:12:00.212Z,82.17
2022-09-15T07:14:27.928Z,82.26
2022-09-15T07:16:55.625Z,81.12
2022-09-15T07:19:23.437Z,78.58
2022-09-15T07:21:53.167Z,77.80
2022-09-15T07:24:20.901Z,77.15
2022-09-15T07:26:48.620Z,75.81
2022-09-15T07:29:16.370Z,75.47
2022-09-15T07:31:44.089Z,75.41
2022-09-15T07:34:12.092Z,76.53
2022-09-15T07:36:39.838Z,76.40
2022-09-15T07:39:08.930Z,76.13
2022-09-15T07:41:36.730Z,74.98
2022-09-15T07:44:04.816Z,74.60
2022-09-15T07:46:33.819Z,73.95
2022-09-15T07:49:03.146Z,73.69
2022-09-15T07:51:31.218Z,74.02
2022-09-15T07:53:59.008Z,73.20
2022-09-15T07:56:28.387Z,73.00
2022-09-15T07:58:56.225Z,73.25
2022-09-15T08:01:24.289Z,73.05
2022-09-15T08:03:53.143Z,75.26
2022-09-15T08:06:23.252Z,73.70
2022-09-15T08:08:55.229Z,71.21
2022-09-15T08:11:29.498Z,72.25
2022-09-15T08:13:57.670Z,73.27
2022-09-15T08:16:25.896Z,71.29
2022-09-15T08:18:55.430Z,66.76
2022-09-15T08:21:24.127Z,66.15
2022-09-15T08:23:53.551Z,67.18
2022-09-15T08:26:21.489Z,67.25
2022-09-15T08:28:50.720Z,67.41
2022-09-15T08:31:18.809Z,69.32
2022-09-15T08:33:48.963Z,68.69
2022-09-15T08:36:17.049Z,69.25
2022-09-15T08:38:46.212Z,69.96
2022-09-15T08:41:16.549Z,68.19
2022-09-15T08:43:48.126Z,67.60
2022-09-15T08:46:21.090Z,66.17
2022-09-15T08:48:52.971Z,65.89
2022-09-15T08:51:27.449Z,67.15
2022-09-15T08:53:59.710Z,68.53
2022-09-15T08:56:29.710Z,69.98
2022-09-15T08:58:57.827Z,66.12
2022-09-15T09:01:42.109Z,64.23
2022-09-15T09:04:33.982Z,64.07
2022-09-15T09:07:10.692Z,63.91
2022-09-15T09:09:44.096Z,65.87
2022-09-15T09:12:33.791Z,64.90
2022-09-15T09:15:15.390Z,58.87
2022-09-15T09:18:00.496Z,55.38
2022-09-15T09:20:34.647Z,56.73
2022-09-15T09:23:03.374Z,53.30
2022-09-15T09:25:31.294Z,52.05
2022-09-15T09:27:59.633Z,54.21
2022-09-15T09:30:30.332Z,49.07
2022-09-15T09:33:10.505Z,49.76
2022-09-15T09:35:43.351Z,47.83
2022-09-15T09:38:11.562Z,46.49
2022-09-15T09:40:41.352Z,46.75
2022-09-15T09:43:09.316Z,49.62
2022-09-15T09:45:37.085Z,49.32
2022-09-15T09:48:15.316Z,48.61
2022-09-15T09:50:44.287Z,49.15
2022-09-15T09:53:23.112Z,47.62
2022-09-15T09:55:50.838Z,46.56
2022-09-15T09:58:21.177Z,47.22
2022-09-15T10:00:49.229Z,48.69
2022-09-15T10:03:19.532Z,46.08
2022-09-15T10:06:01.728Z,47.59
2022-09-15T10:08:29.526Z,46.22
2022-09-15T10:11:02.296Z,46.66
2022-09-15T10:13:30.098Z,48.61
2022-09-15T10:16:01.247Z,46.28
2022-09-15T10:18:35.787Z,45.93
2022-09-15T10:21:04.833Z,46.81
2022-09-15T10:23:34.105Z,47.24
2022-09-15T10:26:20.383Z,46.26
2022-09-15T10:29:12.343Z,46.53
2022-09-15T10:31:41.276Z,47.13
2022-09-15T10:34:30.338Z,46.67
2022-09-15T10:37:07.552Z,46.55
2022-09-15T10:39:42.310Z,47.23
2022-09-15T10:42:15.758Z,46.71
2022-09-15T10:44:52.348Z,47.31
2022-09-15T10:47:27.202Z,50.71
2022-09-15T10:50:07.731Z,51.42
2022-09-15T10:52:46.658Z,52.12
2022-09-15T10:55:37.102Z,51.60
2022-09-15T10:58:34.992Z,52.71
2022-09-15T11:01:14.902Z,54.63
2022-09-15T11:04:20.604Z,57.08
2022-09-15T11:06:55.649Z,58.61
2022-09-15T11:09:26.073Z,62.53
2022-09-15T11:12:03.585Z,65.09
2022-09-15T11:14:45.665Z,66.78
2022-09-15T11:17:25.830Z,68.12
2022-09-15T11:20:05.651Z,69.12
2022-09-15T11:22:36.434Z,68.19
2022-09-15T11:25:11.857Z,66.83
2022-09-15T11:27:43.712Z,66.78
2022-09-15T11:30:17.258Z,64.13
2022-09-15T11:32:47.940Z,65.39
2022-09-15T11:35:38.347Z,63.38
2022-09-15T11:38:15.209Z,63.05
2022-09-15T11:40:48.079Z,64.72
2022-09-15T11:43:19.670Z,66.40
2022-09-15T11:45:51.081Z,65.30
2022-09-15T11:48:22.829Z,66.40
2022-09-15T11:50:54.336Z,65.20
2022-09-15T11:53:29.138Z,62.07
2022-09-15T11:56:01.725Z,63.46
2022-09-15T11:58:35.333Z,61.66
2022-09-15T12:01:09.571Z,60.60
2022-09-15T12:03:39.118Z,57.75
2022-09-15T12:06:10.088Z,54.77
2022-09-15T12:08:43.388Z,55.22
2022-09-15T12:11:15.658Z,56.60
2022-09-15T12:13:43.654Z,57.02
2022-09-15T12:16:11.769Z,57.11
2022-09-15T12:18:44.975Z,53.21
2022-09-15T12:21:18.607Z,55.38
2022-09-15T12:23:53.614Z,55.72
2022-09-15T12:26:23.381Z,53.43
2022-09-15T12:28:57.286Z,51.61
2022-09-15T12:31:33.554Z,53.62
2022-09-15T12:34:03.554Z,52.37
2022-09-15T12:36:43.054Z,52.93
2022-09-15T12:39:32.356Z,52.50
2022-09-15T12:42:20.173Z,50.22
2022-09-15T12:44:54.008Z,51.35
2022-09-15T12:47:28.319Z,53.17
2022-09-15T12:50:00.569Z,50.28
2022-09-15T12:52:29.798Z,50.32
2022-09-15T12:55:01.813Z,49.33
2022-09-15T12:57:32.986Z,49.75
2022-09-15T13:00:42.335Z,51.65
2022-09-15T13:03:28.596Z,52.41
2022-09-15T13:06:18.377Z,49.17
2022-09-15T13:08:51.346Z,49.33
2022-09-15T13:11:25.421Z,48.54
2022-09-15T13:13:55.813Z,47.09
2022-09-15T13:16:28.257Z,47.06
2022-09-15T13:19:06.377Z,46.26
2022-09-15T13:21:35.738Z,47.22
2022-09-15T13:24:06.489Z,47.63
2022-09-15T13:26:37.527Z,46.33
2022-09-15T13:29:07.400Z,46.50
2022-09-15T13:31:40.333Z,48.30
2022-09-15T13:40:34.750Z,48.22
2022-09-15T13:43:21.738Z,47.61
2022-09-15T13:45:59.157Z,50.31
2022-09-15T13:48:43.628Z,49.80
2022-09-15T13:51:16.964Z,50.65
2022-09-15T13:53:49.581Z,50.90
2022-09-15T13:56:21.335Z,49.49
2022-09-15T13:58:56.497Z,49.05
2022-09-15T14:01:28.183Z,48.66
2022-09-15T14:03:57.760Z,47.84
2022-09-15T14:06:27.657Z,47.97
2022-09-15T14:08:57.349Z,48.32
2022-09-15T14:11:28.164Z,49.67
2022-09-15T14:13:59.116Z,48.53
2022-09-15T14:16:33.892Z,50.31
2022-09-15T14:19:03.882Z,51.79
2022-09-15T14:21:32.992Z,52.04
2022-09-15T14:24:04.870Z,51.64
2022-09-15T14:26:35.604Z,47.62
2022-09-15T14:29:06.351Z,48.08
2022-09-15T14:31:36.601Z,48.63
2022-09-15T14:34:07.698Z,50.14
2022-09-15T14:36:35.932Z,50.47
2022-09-15T14:39:16.163Z,49.24
2022-09-15T14:41:44.108Z,49.02
2022-09-15T14:47:21.118Z,47.87
2022-09-15T14:49:48.983Z,47.63
2022-09-15T14:52:25.210Z,48.21
2022-09-15T14:54:57.814Z,48.79
2022-09-15T14:57:30.667Z,49.74
2022-09-15T15:00:03.981Z,49.19
2022-09-15T15:02:41.702Z,50.25
2022-09-15T15:05:11.937Z,50.62
2022-09-15T15:07:40.177Z,51.18
2022-09-15T15:10:15.833Z,50.57
2022-09-15T15:12:47.538Z,50.50
2022-09-15T15:15:17.344Z,50.81
2022-09-15T15:17:47.968Z,50.74
2022-09-15T15:20:19.568Z,50.75
2022-09-15T15:22:48.500Z,50.71
2022-09-15T15:25:27.485Z,51.01
2022-09-15T15:27:56.142Z,52.29
2022-09-15T15:30:46.611Z,52.41
2022-09-15T15:33:25.275Z,52.62
2022-09-15T15:36:07.049Z,51.33
2022-09-15T15:38:36.436Z,52.46
2022-09-15T15:41:06.310Z,52.27
2022-09-15T15:43:34.430Z,52.13
2022-09-15T15:46:04.964Z,52.91
2022-09-15T15:48:37.826Z,53.53
2022-09-15T15:51:07.580Z,53.29
2022-09-15T15:53:35.742Z,53.23
2022-09-15T15:56:03.989Z,53.31
2022-09-15T15:58:31.769Z,54.42
2022-09-15T16:00:59.975Z,54.93
2022-09-15T16:03:29.455Z,54.89
2022-09-15T16:05:59.572Z,55.23
2022-09-15T16:08:30.974Z,56.83
2022-09-15T16:10:59.449Z,60.10
2022-09-15T16:13:27.179Z,62.37
2022-09-15T16:15:56.748Z,63.04
2022-09-15T16:18:24.941Z,65.18
2022-09-15T16:20:55.097Z,65.07
2022-09-15T16:23:24.569Z,64.28
2022-09-15T16:25:55.120Z,64.65
2022-09-15T16:28:22.901Z,64.97
2022-09-15T16:30:50.798Z,64.96
2022-09-15T16:33:19.906Z,64.33
2022-09-15T16:35:51.078Z,65.45
2022-09-15T16:38:20.835Z,68.31
2022-09-15T16:40:49.370Z,67.48
2022-09-15T16:43:19.550Z,67.28
2022-09-15T16:45:47.383Z,68.30
2022-09-15T16:48:15.426Z,68.96
2022-09-15T16:51:01.719Z,69.18
2022-09-15T16:53:32.601Z,69.28
2022-09-15T16:56:00.469Z,68.85
2022-09-15T16:58:28.434Z,70.25
2022-09-15T17:00:56.636Z,70.29
2022-09-15T17:03:25.877Z,70.20
2022-09-15T17:05:55.277Z,68.17
2022-09-15T17:08:25.664Z,67.70
2022-09-15T17:10:56.841Z,67.40
2022-09-15T17:13:29.302Z,67.41
2022-09-15T17:15:58.849Z,67.26
2022-09-15T17:18:27.223Z,66.46
2022-09-15T17:20:55.377Z,67.18
2022-09-15T17:23:24.605Z,67.25
2022-09-15T17:25:57.278Z,67.98
2022-09-15T17:28:26.491Z,66.20
2022-09-15T17:30:58.789Z,66.12
2022-09-15T17:33:27.358Z,65.46
2022-09-15T17:35:55.248Z,65.28
2022-09-15T17:38:23.136Z,64.74
2022-09-15T17:40:51.620Z,64.73
2022-09-15T17:43:22.161Z,64.58
2022-09-15T17:45:50.811Z,64.80
2022-09-15T17:48:19.057Z,64.75
2022-09-15T17:50:48.673Z,65.29
2022-09-15T17:53:18.035Z,65.58
2022-09-15T17:55:45.872Z,65.38
2022-09-15T17:58:13.688Z,66.20
2022-09-15T18:00:44.096Z,66.53
2022-09-15T18:03:20.181Z,66.49
2022-09-15T18:05:48.323Z,66.03
2022-09-15T18:08:16.829Z,66.37
2022-09-15T18:10:45.178Z,66.43
2022-09-15T18:13:15.554Z,67.27
2022-09-15T18:15:45.056Z,67.26
2022-09-15T18:18:15.204Z,67.93
2022-09-15T18:20:43.305Z,68.04
2022-09-15T18:23:14.781Z,68.33
2022-09-15T18:25:42.984Z,67.87
2022-09-15T18:28:11.118Z,67.92
2022-09-15T18:30:41.697Z,67.21
2022-09-15T18:33:14.658Z,67.20
2022-09-15T18:35:42.582Z,67.21
2022-09-15T18:38:11.261Z,67.59
2022-09-15T18:40:39.614Z,67.91
2022-09-15T18:43:07.454Z,68.36
2022-09-15T18:45:35.266Z,68.69
2022-09-15T18:48:03.367Z,69.08
2022-09-15T18:50:32.855Z,68.26
2022-09-15T18:53:00.733Z,69.37
2022-09-15T18:55:28.828Z,70.71
2022-09-15T18:58:00.736Z,70.90
2022-09-15T19:00:29.674Z,70.35
2022-09-15T19:02:58.223Z,69.10
2022-09-15T19:05:26.833Z,69.34
2022-09-15T19:07:56.326Z,67.24
2022-09-15T19:10:24.925Z,67.23
2022-09-15T19:12:52.721Z,67.46
2022-09-15T19:15:23.624Z,66.53
2022-09-15T19:17:51.876Z,67.03
2022-09-15T19:20:19.620Z,67.57
2022-09-15T19:22:47.607Z,67.44
2022-09-15T19:25:16.725Z,67.96
2022-09-15T19:27:44.505Z,67.62
2022-09-15T19:30:13.372Z,67.69
2022-09-15T19:32:41.574Z,68.50
2022-09-15T19:35:11.297Z,68.69
2022-09-15T19:37:40.710Z,68.22
2022-09-15T19:40:11.046Z,67.98
2022-09-15T19:42:41.357Z,68.55
2022-09-15T19:45:11.364Z,67.96
2022-09-15T19:47:39.689Z,68.67
2022-09-15T19:50:09.150Z,66.62
2022-09-15T19:52:36.952Z,67.11
2022-09-15T19:55:06.653Z,68.24
2022-09-15T19:57:34.453Z,67.22
2022-09-15T20:00:05.551Z,67.89
2022-09-15T20:02:33.315Z,67.81
2022-09-15T20:05:01.177Z,67.51
2022-09-15T20:07:28.907Z,67.20
2022-09-15T20:09:57.362Z,66.34
2022-09-15T20:12:25.598Z,66.91
2022-09-15T20:14:53.424Z,66.69
2022-09-15T20:17:22.574Z,65.13
2022-09-15T20:19:50.377Z,64.83
2022-09-15T20:22:18.094Z,65.28
2022-09-15T20:24:45.863Z,64.95
2022-09-15T20:27:14.014Z,65.15
2022-09-15T20:29:41.897Z,65.09
2022-09-15T20:32:09.629Z,65.70
2022-09-15T20:34:38.855Z,65.07
2022-09-15T20:37:07.099Z,65.59
2022-09-15T20:39:35.715Z,64.89
2022-09-15T20:42:03.453Z,65.47
2022-09-15T20:44:31.151Z,65.62
2022-09-15T20:46:58.848Z,65.63
2022-09-15T20:49:26.578Z,64.76
2022-09-15T20:51:55.640Z,65.36
2022-09-15T20:54:24.108Z,64.42
2022-09-15T20:56:51.857Z,65.79
2022-09-15T20:59:19.602Z,65.23
2022-09-15T21:01:47.687Z,64.52
2022-09-15T21:04:15.472Z,64.67
2022-09-15T21:06:43.244Z,64.59
2022-09-15T21:09:12.452Z,64.31
2022-09-15T21:11:43.050Z,65.23
2022-09-15T21:14:13.453Z,64.32
2022-09-15T21:16:42.448Z,64.46
2022-09-15T21:19:12.453Z,64.02
2022-09-15T21:21:40.487Z,64.87
2022-09-15T21:24:09.646Z,65.15
2022-09-15T21:27:00.917Z,65.30
2022-09-15T21:29:29.460Z,66.22
2022-09-15T21:31:57.716Z,65.76
2022-09-15T21:34:26.286Z,65.31
2022-09-15T21:36:54.021Z,65.02
2022-09-15T21:39:21.849Z,64.66
2022-09-15T21:41:51.112Z,64.30
2022-09-15T21:44:18.901Z,65.75
2022-09-15T21:46:47.241Z,65.55
2022-09-15T21:49:15.066Z,66.33
2022-09-15T21:51:42.860Z,66.36
2022-09-15T21:54:11.072Z,65.87
2022-09-15T21:56:38.926Z,66.24
2022-09-15T21:59:09.209Z,67.27
2022-09-15T22:01:37.272Z,66.48
2022-09-15T22:04:08.426Z,66.00
2022-09-15T22:06:37.730Z,66.63
2022-09-15T22:09:07.297Z,66.05
2022-09-15T22:11:35.708Z,66.81
2022-09-15T22:14:04.420Z,66.63
2022-09-15T22:16:33.697Z,67.72
2022-09-15T22:19:01.840Z,67.34
2022-09-15T22:21:31.483Z,66.89
2022-09-15T22:24:00.078Z,66.57
2022-09-15T22:26:29.787Z,66.67
2022-09-15T22:28:59.462Z,66.20
2022-09-15T22:31:28.322Z,66.04
2022-09-15T22:33:57.833Z,65.54
2022-09-15T22:36:29.762Z,66.18
2022-09-15T22:39:03.421Z,66.51
2022-09-15T22:41:31.997Z,67.15
2022-09-15T22:43:59.802Z,66.19
2022-09-15T22:46:27.625Z,66.32
2022-09-15T22:48:56.765Z,67.16
2022-09-15T22:51:24.628Z,67.79
2022-09-15T22:53:54.533Z,67.00
2022-09-15T22:56:23.140Z,67.27
2022-09-15T22:58:50.878Z,68.13
2022-09-15T23:01:20.475Z,67.64
2022-09-15T23:03:50.859Z,68.46
2022-09-15T23:06:20.053Z,68.58
2022-09-15T23:08:51.288Z,68.55
2022-09-15T23:11:19.027Z,68.19
2022-09-15T23:13:46.994Z,68.21
2022-09-15T23:16:14.799Z,68.07
2022-09-15T23:18:42.820Z,68.67
2022-09-15T23:21:13.885Z,70.37
2022-09-15T23:23:45.259Z,69.94
2022-09-15T23:26:13.811Z,69.06
2022-09-15T23:28:41.671Z,68.98
2022-09-15T23:31:11.885Z,67.88
2022-09-15T23:33:39.747Z,68.32
2022-09-15T23:36:09.552Z,69.13
2022-09-15T23:38:38.564Z,69.43
2022-09-15T23:41:08.604Z,69.83
2022-09-15T23:43:36.432Z,70.78
2022-09-15T23:46:04.717Z,70.19
2022-09-15T23:48:32.803Z,70.29
2022-09-15T23:51:00.964Z,70.41
2022-09-15T23:53:29.006Z,70.99
2022-09-15T23:55:56.790Z,72.04
2022-09-15T23:58:26.102Z,72.66
